createdAt,value
2022-12-01T00:03:58.331Z,61.90
2022-12-01T00:08:06.465Z,52.40
2022-12-01T00:12:14.149Z,42.50
2022-12-01T00:16:22.199Z,43.40
2022-12-01T00:20:31.199Z,43.20
2022-12-01T00:24:38.544Z,47.80
2022-12-01T00:28:46.489Z,43.60
2022-12-01T00:32:54.456Z,62.60
2022-12-01T00:37:01.896Z,59.50
2022-12-01T00:41:09.573Z,45.40
2022-12-01T00:45:18.557Z,43.60
2022-12-01T00:49:25.895Z,46.20
2022-12-01T00:53:33.437Z,42.00
2022-12-01T00:57:41.509Z,65.60
2022-12-01T01:01:49.831Z,63.30
2022-12-01T01:05:57.776Z,45.80
2022-12-01T01:10:05.469Z,45.90
2022-12-01T01:14:12.886Z,41.80
2022-12-01T01:18:21.741Z,41.00
2022-12-01T01:22:28.942Z,40.80
2022-12-01T01:26:37.533Z,57.90
2022-12-01T01:30:45.100Z,55.30
2022-12-01T01:34:52.650Z,48.50
2022-12-01T01:39:00.255Z,41.60
2022-12-01T01:43:17.200Z,34.30
2022-12-01T01:47:27.351Z,36.00
2022-12-01T01:51:38.642Z,43.00
2022-12-01T01:55:46.447Z,59.10
2022-12-01T01:59:56.677Z,59.90
2022-12-01T02:04:04.407Z,46.40
2022-12-01T02:08:13.066Z,44.50
2022-12-01T02:12:39.861Z,44.00
2022-12-01T02:16:54.494Z,43.50
2022-12-01T02:21:25.411Z,41.80
2022-12-01T02:25:37.845Z,62.60
2022-12-01T02:30:07.804Z,56.20
2022-12-01T02:34:20.051Z,44.80
2022-12-01T02:38:32.155Z,39.90
2022-12-01T02:42:54.427Z,41.60
2022-12-01T02:47:04.376Z,41.00
2022-12-01T02:51:17.576Z,42.60
2022-12-01T02:55:25.670Z,53.60
2022-12-01T02:59:33.537Z,55.80
2022-12-01T03:04:13.930Z,44.10
2022-12-01T03:08:26.834Z,43.60
2022-12-01T03:12:39.304Z,42.40
2022-12-01T03:16:51.842Z,38.10
2022-12-01T03:21:02.945Z,42.10
2022-12-01T03:25:11.721Z,46.20
2022-12-01T03:29:21.319Z,71.90
2022-12-01T03:33:32.987Z,62.70
2022-12-01T03:37:44.695Z,44.50
2022-12-01T03:41:55.305Z,46.30
2022-12-01T03:46:07.951Z,44.20
2022-12-01T03:50:18.780Z,39.70
2022-12-01T03:54:33.723Z,43.50
2022-12-01T03:58:44.758Z,57.90
2022-12-01T04:02:58.010Z,51.80
2022-12-01T04:07:06.359Z,44.30
2022-12-01T04:11:32.366Z,46.70
2022-12-01T04:15:40.135Z,40.90
2022-12-01T04:19:48.137Z,40.10
2022-12-01T04:24:02.666Z,43.20
2022-12-01T04:28:10.888Z,40.40
2022-12-01T04:32:19.049Z,65.20
2022-12-01T04:36:28.098Z,59.00
2022-12-01T04:40:35.881Z,48.10
2022-12-01T04:44:43.714Z,51.40
2022-12-01T04:48:51.904Z,48.20
2022-12-01T04:52:59.603Z,48.10
2022-12-01T04:57:06.906Z,45.70
2022-12-01T05:01:16.362Z,58.50
2022-12-01T05:05:24.349Z,62.70
2022-12-01T05:09:31.840Z,49.90
2022-12-01T05:13:40.879Z,52.10
2022-12-01T05:17:48.218Z,47.00
2022-12-01T05:21:56.085Z,48.20
2022-12-01T05:26:04.374Z,45.70
2022-12-01T05:30:14.752Z,66.80
2022-12-01T05:34:22.478Z,59.70
2022-12-01T05:38:30.526Z,45.90
2022-12-01T05:42:38.031Z,46.40
2022-12-01T05:46:45.167Z,45.00
2022-12-01T05:50:53.267Z,45.00
2022-12-01T05:55:01.956Z,37.40
2022-12-01T05:59:09.683Z,42.50
2022-12-01T06:03:17.877Z,66.00
2022-12-01T06:07:26.173Z,64.20
2022-12-01T06:11:35.247Z,48.40
2022-12-01T06:15:42.717Z,47.40
2022-12-01T06:19:52.178Z,43.70
2022-12-01T06:24:00.615Z,43.00
2022-12-01T06:28:08.344Z,48.30
2022-12-01T06:32:16.190Z,71.40
2022-12-01T06:36:24.828Z,65.60
2022-12-01T06:40:32.322Z,47.80
2022-12-01T06:44:40.064Z,46.90
2022-12-01T06:48:51.012Z,39.80
2022-12-01T06:52:59.476Z,43.90
2022-12-01T06:57:07.673Z,67.80
2022-12-01T07:01:16.049Z,68.30
2022-12-01T07:05:24.669Z,61.20
2022-12-01T07:09:33.185Z,48.20
2022-12-01T07:13:41.022Z,43.50
2022-12-01T07:17:51.125Z,45.70
2022-12-01T07:21:59.033Z,45.70
2022-12-01T07:26:08.495Z,40.60
2022-12-01T07:30:17.131Z,68.30
2022-12-01T07:34:24.800Z,88.70
2022-12-01T07:38:33.851Z,69.80
2022-12-01T07:42:43.652Z,63.60
2022-12-01T07:46:51.664Z,53.90
2022-12-01T07:50:59.981Z,54.00
2022-12-01T07:55:09.117Z,45.30
2022-12-01T07:59:17.265Z,40.40
2022-12-01T08:03:24.713Z,44.40
2022-12-01T08:07:32.846Z,92.00
2022-12-01T08:11:40.595Z,74.70
2022-12-01T08:15:48.954Z,65.50
2022-12-01T08:19:56.603Z,47.60
2022-12-01T08:24:04.057Z,42.50
2022-12-01T08:28:11.788Z,48.90
2022-12-01T08:32:19.615Z,51.50
2022-12-01T08:36:27.518Z,61.60
2022-12-01T08:40:35.187Z,59.10
2022-12-01T08:44:43.487Z,51.70
2022-12-01T08:48:51.446Z,48.30
2022-12-01T08:52:58.798Z,49.50
2022-12-01T08:57:06.966Z,49.40
2022-12-01T09:01:16.338Z,45.00
2022-12-01T09:05:24.354Z,50.10
2022-12-01T09:09:32.271Z,71.60
2022-12-01T09:13:40.943Z,68.00
2022-12-01T09:17:48.912Z,49.80
2022-12-01T09:21:56.707Z,47.90
2022-12-01T09:26:04.497Z,49.40
2022-12-01T09:30:14.772Z,47.30
2022-12-01T09:34:23.412Z,47.40
2022-12-01T09:38:31.520Z,48.80
2022-12-01T09:42:39.252Z,78.10
2022-12-01T09:46:50.227Z,69.20
2022-12-01T09:50:58.679Z,52.50
2022-12-01T09:55:08.630Z,50.00
2022-12-01T09:59:22.786Z,43.00
2022-12-01T10:03:35.540Z,46.80
2022-12-01T10:07:48.215Z,43.30
2022-12-01T10:12:00.434Z,39.10
2022-12-01T10:16:12.796Z,66.80
2022-12-01T10:20:25.965Z,69.20
2022-12-01T10:24:47.605Z,58.70
2022-12-01T10:29:18.154Z,46.30
2022-12-01T10:33:28.781Z,49.80
2022-12-01T10:37:36.441Z,52.00
2022-12-01T10:41:44.656Z,50.70
2022-12-01T10:45:52.451Z,67.00
2022-12-01T10:50:00.610Z,65.50
2022-12-01T10:54:12.437Z,56.20
2022-12-01T10:58:22.035Z,52.10
2022-12-01T11:02:30.939Z,49.50
2022-12-01T11:06:38.735Z,46.40
2022-12-01T11:10:50.992Z,49.90
2022-12-01T11:14:59.069Z,55.20
2022-12-01T11:19:27.545Z,62.40
2022-12-01T11:23:39.095Z,53.00
2022-12-01T11:27:52.884Z,52.60
2022-12-01T11:32:01.799Z,55.80
2022-12-01T11:36:16.082Z,50.10
2022-12-01T11:40:26.684Z,49.10
2022-12-01T11:44:50.708Z,43.50
2022-12-01T11:49:02.304Z,71.10
2022-12-01T11:53:29.085Z,59.10
2022-12-01T11:57:36.450Z,52.20
2022-12-01T12:02:02.509Z,50.20
2022-12-01T12:10:54.222Z,46.20
2022-12-01T12:15:12.406Z,48.10
2022-12-01T12:20:06.111Z,61.60
2022-12-01T12:24:37.626Z,51.10
2022-12-01T12:28:57.717Z,47.70
2022-12-01T12:33:26.111Z,35.90
2022-12-01T12:37:39.439Z,33.60
2022-12-01T12:41:49.808Z,32.00
2022-12-01T12:46:08.630Z,28.00
2022-12-01T12:50:31.759Z,24.50
2022-12-01T12:54:47.222Z,28.70
2022-12-01T12:59:01.246Z,30.80
2022-12-01T13:03:16.633Z,27.90
2022-12-01T13:07:33.734Z,27.70
2022-12-01T13:11:46.472Z,28.00
2022-12-01T13:15:56.146Z,25.90
2022-12-01T13:20:04.066Z,27.00
2022-12-01T13:24:18.506Z,29.10
2022-12-01T13:28:31.030Z,34.00
2022-12-01T13:32:40.827Z,30.20
2022-12-01T13:36:54.560Z,30.10
2022-12-01T13:41:26.082Z,27.90
2022-12-01T13:45:36.982Z,27.30
2022-12-01T13:49:46.256Z,26.50
2022-12-01T13:54:08.021Z,26.70
2022-12-01T13:58:32.156Z,25.30
2022-12-01T14:02:41.573Z,35.80
2022-12-01T14:06:50.503Z,28.60
2022-12-01T14:11:03.843Z,28.60
2022-12-01T14:15:35.503Z,26.30
2022-12-01T14:19:52.141Z,30.80
2022-12-01T14:24:05.615Z,29.20
2022-12-01T14:28:18.360Z,29.30
2022-12-01T14:32:28.609Z,28.80
2022-12-01T14:36:41.209Z,37.20
2022-12-01T14:40:48.986Z,34.60
2022-12-01T14:44:58.287Z,32.20
2022-12-01T14:49:06.875Z,25.90
2022-12-01T14:53:24.185Z,27.90
2022-12-01T14:57:43.354Z,29.90
2022-12-01T15:01:53.225Z,30.20
2022-12-01T15:06:01.013Z,30.90
2022-12-01T15:10:19.872Z,35.80
2022-12-01T15:14:34.938Z,42.10
2022-12-01T15:18:42.542Z,25.70
2022-12-01T15:22:50.456Z,28.30
2022-12-01T15:27:03.821Z,30.20
2022-12-01T15:31:14.496Z,30.10
2022-12-01T15:35:23.865Z,29.40
2022-12-01T15:39:35.439Z,31.10
2022-12-01T15:43:43.132Z,26.90
2022-12-01T15:47:52.686Z,26.70
2022-12-01T15:52:08.330Z,24.60
2022-12-01T15:56:16.852Z,25.60
2022-12-01T16:00:26.162Z,30.20
2022-12-01T16:04:35.594Z,29.00
2022-12-01T16:08:43.611Z,28.00
2022-12-01T16:12:51.205Z,35.50
2022-12-01T16:16:59.680Z,28.50
2022-12-01T16:21:08.610Z,29.00
2022-12-01T16:25:21.379Z,29.20
2022-12-01T16:29:30.074Z,28.60
2022-12-01T16:33:40.880Z,30.00
2022-12-01T16:37:49.914Z,26.00
2022-12-01T16:42:02.517Z,25.90
2022-12-01T16:46:14.095Z,35.50
2022-12-01T16:50:24.155Z,29.30
2022-12-01T16:54:31.375Z,27.10
2022-12-01T16:58:38.931Z,27.20
2022-12-01T17:02:46.905Z,28.70
2022-12-01T17:06:54.751Z,27.50
2022-12-01T17:11:05.752Z,27.60
2022-12-01T17:15:14.119Z,26.00
2022-12-01T17:19:21.807Z,36.60
2022-12-01T17:23:32.710Z,34.40
2022-12-01T17:27:42.276Z,27.00
2022-12-01T17:31:51.309Z,27.50
2022-12-01T17:36:03.037Z,27.00
2022-12-01T17:40:15.148Z,25.60
2022-12-01T17:44:22.815Z,26.20
2022-12-01T17:48:31.510Z,26.60
2022-12-01T17:52:39.639Z,35.10
2022-12-01T17:56:47.215Z,30.20
2022-12-01T18:00:56.531Z,28.10
2022-12-01T18:05:05.667Z,29.30
2022-12-01T18:09:14.440Z,26.60
2022-12-01T18:13:23.100Z,25.70
2022-12-01T18:17:30.739Z,24.20
2022-12-01T18:21:38.423Z,26.00
2022-12-01T18:25:46.754Z,32.20
2022-12-01T18:29:54.689Z,33.10
2022-12-01T18:34:10.269Z,29.40
2022-12-01T18:38:18.837Z,27.30
2022-12-01T18:42:27.646Z,26.80
2022-12-01T18:46:35.410Z,24.50
2022-12-01T18:50:43.274Z,27.70
2022-12-01T18:54:51.212Z,23.20
2022-12-01T18:58:59.705Z,27.50
2022-12-01T19:03:07.026Z,24.50
2022-12-01T19:07:15.407Z,24.20
2022-12-01T19:11:23.491Z,24.00
2022-12-01T19:15:31.045Z,24.00
2022-12-01T19:19:38.615Z,22.30
2022-12-01T19:23:46.728Z,23.10
2022-12-01T19:27:54.311Z,24.50
2022-12-01T19:32:04.259Z,23.60
2022-12-01T19:36:14.378Z,24.40
2022-12-01T19:40:22.246Z,21.70
2022-12-01T19:44:30.060Z,24.20
2022-12-01T19:48:37.734Z,22.50
2022-12-01T19:52:45.100Z,22.40
2022-12-01T19:56:53.441Z,22.30
2022-12-01T20:01:07.613Z,24.00
2022-12-01T20:05:17.218Z,29.10
2022-12-01T20:09:25.346Z,27.30
2022-12-01T20:13:33.978Z,23.60
2022-12-01T20:17:41.816Z,24.40
2022-12-01T20:21:49.977Z,22.00
2022-12-01T20:25:57.631Z,23.40
2022-12-01T20:30:06.098Z,23.10
2022-12-01T20:34:15.175Z,22.50
2022-12-01T20:38:27.302Z,28.20
2022-12-01T20:42:39.326Z,26.30
2022-12-01T20:46:48.377Z,24.70
2022-12-01T20:50:56.011Z,22.20
2022-12-01T20:55:03.667Z,23.50
2022-12-01T20:59:11.679Z,22.80
2022-12-01T21:03:18.954Z,23.00
2022-12-01T21:07:26.420Z,18.80
2022-12-01T21:11:55.064Z,27.30
2022-12-01T21:16:07.023Z,24.40
2022-12-01T21:20:22.786Z,21.30
2022-12-01T21:24:35.768Z,22.20
2022-12-01T21:28:45.479Z,22.30
2022-12-01T21:32:53.236Z,21.80
2022-12-01T21:37:03.474Z,20.80
2022-12-01T21:41:20.610Z,21.90
2022-12-01T21:45:32.198Z,23.10
2022-12-01T21:49:42.243Z,20.60
2022-12-01T21:53:51.451Z,20.10
2022-12-01T21:57:59.446Z,19.60
2022-12-01T22:02:29.760Z,19.90
2022-12-01T22:06:39.625Z,20.10
2022-12-01T22:10:59.188Z,17.50
2022-12-01T22:15:24.031Z,21.80
2022-12-01T22:19:34.230Z,23.20
2022-12-01T22:23:44.299Z,17.90
2022-12-01T22:27:52.316Z,16.50
2022-12-01T22:32:35.677Z,16.90
2022-12-01T22:36:44.302Z,14.60
2022-12-01T22:40:59.838Z,17.50
2022-12-01T22:45:24.817Z,17.60
2022-12-01T22:49:33.058Z,18.10
2022-12-01T22:53:41.301Z,21.90
2022-12-01T22:57:49.860Z,24.90
2022-12-01T23:01:59.969Z,20.60
2022-12-01T23:06:46.238Z,18.30
2022-12-01T23:10:55.045Z,19.70
2022-12-01T23:15:16.399Z,16.90
2022-12-01T23:19:24.775Z,15.60
2022-12-01T23:23:33.792Z,17.00
2022-12-01T23:27:42.350Z,24.00
2022-12-01T23:31:50.018Z,19.10
2022-12-01T23:36:01.725Z,19.10
2022-12-01T23:40:20.717Z,17.10
2022-12-01T23:44:37.273Z,17.70
2022-12-01T23:48:47.286Z,17.90
2022-12-01T23:52:55.584Z,15.40
2022-12-01T23:57:04.984Z,15.10
